createdAt,value
2023-05-10T00:00:29.390Z,99745.84
2023-05-10T00:02:56.209Z,99754.34
2023-05-10T00:05:22.810Z,99754.06
2023-05-10T00:07:49.494Z,99753.31
2023-05-10T00:10:16.500Z,99751.03
2023-05-10T00:12:44.261Z,99758.22
2023-05-10T00:15:11.760Z,99758.44
2023-05-10T00:17:38.658Z,99761.53
2023-05-10T00:20:06.136Z,99756.69
2023-05-10T00:22:33.369Z,99760.75
2023-05-10T00:25:00.250Z,99769.38
2023-05-10T00:27:26.765Z,99771.00
2023-05-10T00:29:53.545Z,99768.03
2023-05-10T00:32:20.089Z,99763.72
2023-05-10T00:34:46.678Z,99768.56
2023-05-10T00:37:14.244Z,99778.66
2023-05-10T00:39:40.697Z,99769.41
2023-05-10T00:42:07.683Z,99777.56
2023-05-10T00:44:34.272Z,99777.19
2023-05-10T00:47:00.878Z,99771.00
2023-05-10T00:49:27.997Z,99779.06
2023-05-10T00:51:54.933Z,99778.81
2023-05-10T00:54:21.699Z,99783.69
2023-05-10T00:56:50.300Z,99784.53
2023-05-10T00:59:18.897Z,99781.53
2023-05-10T01:01:49.192Z,99784.19
2023-05-10T01:04:16.281Z,99780.38
2023-05-10T01:06:43.251Z,99784.84
2023-05-10T01:09:10.782Z,99793.19
2023-05-10T01:11:40.730Z,99783.81
2023-05-10T01:14:07.704Z,99792.91
2023-05-10T01:16:38.181Z,99793.88
2023-05-10T01:19:16.391Z,99792.13
2023-05-10T01:22:31.091Z,99788.03
2023-05-10T01:25:24.964Z,99790.06
2023-05-10T01:28:22.116Z,99799.31
2023-05-10T01:30:57.193Z,99800.72
2023-05-10T01:33:29.345Z,99796.16
2023-05-10T01:36:04.865Z,99800.06
2023-05-10T01:38:44.114Z,99799.81
2023-05-10T01:41:29.462Z,99806.03
2023-05-10T01:44:01.918Z,99803.53
2023-05-10T01:46:38.045Z,99810.47
2023-05-10T01:49:09.626Z,99814.59
2023-05-10T01:52:09.443Z,99820.66
2023-05-10T01:54:39.387Z,99819.41
2023-05-10T01:57:10.104Z,99814.72
2023-05-10T01:59:41.943Z,99821.44
2023-05-10T02:02:12.752Z,99829.78
2023-05-10T02:04:41.218Z,99824.91
2023-05-10T02:07:09.547Z,99825.19
2023-05-10T02:09:38.054Z,99834.19
2023-05-10T02:12:07.524Z,99827.44
2023-05-10T02:14:37.896Z,99834.31
2023-05-10T02:17:07.008Z,99826.25
2023-05-10T02:19:34.389Z,99835.19
2023-05-10T02:22:02.945Z,99830.50
2023-05-10T02:24:30.658Z,99831.25
2023-05-10T02:26:58.378Z,99837.84
2023-05-10T02:29:28.008Z,99842.94
2023-05-10T02:31:56.444Z,99848.84
2023-05-10T02:34:23.936Z,99851.78
2023-05-10T02:36:52.019Z,99852.25
2023-05-10T02:39:21.813Z,99856.28
2023-05-10T02:41:49.851Z,99850.84
2023-05-10T02:44:19.475Z,99860.53
2023-05-10T02:46:46.704Z,99857.38
2023-05-10T02:49:13.668Z,99854.25
2023-05-10T02:51:44.935Z,99852.91
2023-05-10T02:54:17.676Z,99853.47
2023-05-10T02:56:58.603Z,99855.84
2023-05-10T02:59:25.178Z,99859.63
2023-05-10T03:01:51.763Z,99859.75
2023-05-10T03:04:18.516Z,99860.72
2023-05-10T03:06:45.620Z,99860.53
2023-05-10T03:09:16.003Z,99860.44
2023-05-10T03:12:05.648Z,99860.72
2023-05-10T03:14:48.419Z,99865.03
2023-05-10T03:17:55.423Z,99861.38
2023-05-10T03:20:27.244Z,99856.06
2023-05-10T03:23:03.618Z,99860.78
2023-05-10T03:25:32.221Z,99857.78
2023-05-10T03:28:00.243Z,99867.63
2023-05-10T03:30:27.113Z,99871.41
2023-05-10T03:32:53.725Z,99870.50
2023-05-10T03:35:20.416Z,99876.81
2023-05-10T03:37:48.051Z,99869.22
2023-05-10T03:40:14.802Z,99870.28
2023-05-10T03:42:41.622Z,99870.13
2023-05-10T03:45:09.039Z,99870.50
2023-05-10T03:47:36.091Z,99882.41
2023-05-10T03:50:03.772Z,99885.94
2023-05-10T03:52:31.439Z,99885.03
2023-05-10T03:54:58.012Z,99897.63
2023-05-10T03:57:24.557Z,99894.06
2023-05-10T03:59:51.106Z,99890.16
2023-05-10T04:02:18.660Z,99892.06
2023-05-10T04:04:45.192Z,99882.91
2023-05-10T04:07:11.809Z,99888.00
2023-05-10T04:09:38.358Z,99886.53
2023-05-10T04:12:05.261Z,99880.31
2023-05-10T04:14:32.108Z,99889.56
2023-05-10T04:16:58.834Z,99882.94
2023-05-10T04:19:25.633Z,99882.94
2023-05-10T04:21:52.174Z,99887.75
2023-05-10T04:24:18.655Z,99886.88
2023-05-10T04:26:45.239Z,99888.16
2023-05-10T04:29:11.999Z,99883.91
2023-05-10T04:31:38.855Z,99888.94
2023-05-10T04:34:07.708Z,99893.00
2023-05-10T04:36:36.419Z,99891.31
2023-05-10T04:39:04.246Z,99890.00
2023-05-10T04:41:31.398Z,99894.72
2023-05-10T04:43:58.310Z,99900.72
2023-05-10T04:46:27.351Z,99901.63
2023-05-10T04:48:53.930Z,99908.66
2023-05-10T04:51:21.421Z,99903.56
2023-05-10T04:54:01.593Z,99902.34
2023-05-10T04:56:32.370Z,99909.16
2023-05-10T04:58:58.920Z,99909.09
2023-05-10T05:01:25.425Z,99912.16
2023-05-10T05:03:53.859Z,99909.28
2023-05-10T05:06:22.199Z,99915.84
2023-05-10T05:08:50.726Z,99910.75
2023-05-10T05:11:18.292Z,99909.19
2023-05-10T05:13:45.190Z,99915.84
2023-05-10T05:16:12.683Z,99913.34
2023-05-10T05:18:39.669Z,99915.19
2023-05-10T05:21:18.056Z,99923.78
2023-05-10T05:23:44.945Z,99929.25
2023-05-10T05:26:11.684Z,99927.47
2023-05-10T05:28:38.701Z,99933.13
2023-05-10T05:31:06.706Z,99938.91
2023-05-10T05:33:35.389Z,99928.53
2023-05-10T05:36:03.622Z,99932.28
2023-05-10T05:38:30.208Z,99936.22
2023-05-10T05:40:57.415Z,99934.00
2023-05-10T05:43:24.047Z,99939.13
2023-05-10T05:45:50.972Z,99935.34
2023-05-10T05:48:17.796Z,99936.69
2023-05-10T05:50:47.948Z,99942.31
2023-05-10T05:53:14.525Z,99946.19
2023-05-10T05:55:41.152Z,99939.69
2023-05-10T05:58:08.347Z,99952.19
2023-05-10T06:00:35.959Z,99950.16
2023-05-10T06:03:02.754Z,99955.81
2023-05-10T06:05:29.576Z,99957.53
2023-05-10T06:07:56.356Z,99959.16
2023-05-10T06:10:23.746Z,99956.03
2023-05-10T06:12:50.454Z,99961.50
2023-05-10T06:15:17.838Z,99964.63
2023-05-10T06:17:45.448Z,99974.03
2023-05-10T06:20:12.765Z,99970.03
2023-05-10T06:22:39.314Z,99968.69
2023-05-10T06:25:06.813Z,99969.22
2023-05-10T06:27:34.469Z,99971.06
2023-05-10T06:30:11.630Z,99985.28
2023-05-10T06:32:39.756Z,99988.03
2023-05-10T06:35:06.954Z,99986.75
2023-05-10T06:37:33.716Z,99998.25
2023-05-10T06:40:02.807Z,99985.09
2023-05-10T06:42:30.763Z,99990.81
2023-05-10T06:44:57.561Z,99998.38
2023-05-10T06:47:24.153Z,99994.59
2023-05-10T06:49:52.166Z,99995.91
2023-05-10T06:52:18.730Z,99993.38
2023-05-10T06:54:45.436Z,99989.22
2023-05-10T06:57:23.290Z,100000.56
2023-05-10T06:59:57.636Z,99995.53
2023-05-10T07:02:24.139Z,99992.59
2023-05-10T07:04:51.342Z,99996.63
2023-05-10T07:07:18.151Z,99998.84
2023-05-10T07:09:44.772Z,99998.25
2023-05-10T07:12:13.397Z,100005.84
2023-05-10T07:14:41.443Z,100006.72
2023-05-10T07:17:07.972Z,100002.47
2023-05-10T07:19:34.745Z,100004.66
2023-05-10T07:22:01.399Z,100020.53
2023-05-10T07:24:28.102Z,100013.75
2023-05-10T07:26:54.774Z,100019.47
2023-05-10T07:29:21.547Z,100018.63
2023-05-10T07:31:48.463Z,100026.28
2023-05-10T07:34:15.320Z,100023.16
2023-05-10T07:36:43.100Z,100026.13
2023-05-10T07:39:09.950Z,100022.00
2023-05-10T07:41:38.635Z,100023.72
2023-05-10T07:44:07.136Z,100028.94
2023-05-10T07:46:33.724Z,100021.84
2023-05-10T07:49:00.341Z,100028.75
2023-05-10T07:51:27.357Z,100033.28
2023-05-10T07:53:54.001Z,100040.66
2023-05-10T07:56:33.861Z,100031.34
2023-05-10T07:59:01.472Z,100033.47
2023-05-10T08:01:33.953Z,100039.47
2023-05-10T08:04:01.128Z,100052.16
2023-05-10T08:06:30.932Z,100034.25
2023-05-10T08:08:57.746Z,100027.41
2023-05-10T08:11:24.717Z,100034.94
2023-05-10T08:13:52.772Z,100027.94
2023-05-10T08:16:19.762Z,100041.66
2023-05-10T08:18:47.886Z,100037.78
2023-05-10T08:21:16.360Z,100038.47
2023-05-10T08:23:45.196Z,100047.59
2023-05-10T08:26:12.245Z,100044.75
2023-05-10T08:28:38.986Z,100038.75
2023-05-10T08:31:06.149Z,100045.38
2023-05-10T08:33:33.024Z,100044.81
2023-05-10T08:35:59.711Z,100040.81
2023-05-10T08:38:26.965Z,100049.50
2023-05-10T08:40:58.228Z,100044.00
2023-05-10T08:43:28.535Z,100052.88
2023-05-10T08:45:56.524Z,100048.34
2023-05-10T08:48:25.029Z,100056.44
2023-05-10T08:50:55.962Z,100055.84
2023-05-10T08:53:26.241Z,100054.69
2023-05-10T08:55:53.961Z,100055.25
2023-05-10T08:58:22.412Z,100056.22
2023-05-10T09:00:52.181Z,100056.03
2023-05-10T09:03:19.025Z,100058.25
2023-05-10T09:05:46.164Z,100061.78
2023-05-10T09:08:15.634Z,100063.91
2023-05-10T09:10:44.569Z,100070.34
2023-05-10T09:13:12.846Z,100074.03
2023-05-10T09:15:39.551Z,100074.41
2023-05-10T09:18:06.469Z,100073.16
2023-05-10T09:20:33.880Z,100074.13
2023-05-10T09:23:00.761Z,100075.41
2023-05-10T09:25:27.641Z,100072.63
2023-05-10T09:27:54.303Z,100083.19
2023-05-10T09:30:28.664Z,100081.22
2023-05-10T09:32:56.579Z,100087.00
2023-05-10T09:35:28.708Z,100083.22
2023-05-10T09:37:59.028Z,100090.41
2023-05-10T09:40:30.720Z,100083.94
2023-05-10T09:43:07.260Z,100079.91
2023-05-10T09:45:38.170Z,100083.56
2023-05-10T09:48:07.250Z,100088.38
2023-05-10T09:50:35.976Z,100094.03
2023-05-10T09:53:04.696Z,100096.84
2023-05-10T09:55:46.661Z,100097.00
2023-05-10T09:58:16.502Z,100093.13
2023-05-10T10:00:45.132Z,100098.31
2023-05-10T10:03:16.578Z,100100.66
2023-05-10T10:05:44.805Z,100104.94
2023-05-10T10:08:12.948Z,100096.19
2023-05-10T10:10:41.520Z,100102.41
2023-05-10T10:13:10.907Z,100097.19
2023-05-10T10:15:37.893Z,100107.00
2023-05-10T10:18:06.339Z,100108.31
2023-05-10T10:20:33.187Z,100108.84
2023-05-10T10:22:59.960Z,100108.88
2023-05-10T10:25:26.700Z,100111.13
2023-05-10T10:27:53.263Z,100120.28
2023-05-10T10:30:29.206Z,100115.06
2023-05-10T10:33:27.443Z,100114.22
2023-05-10T10:35:56.755Z,100114.38
2023-05-10T10:38:23.973Z,100116.06
2023-05-10T10:41:03.704Z,100118.09
2023-05-10T10:43:30.570Z,100124.63
2023-05-10T10:46:19.172Z,100121.59
2023-05-10T10:48:50.622Z,100121.53
2023-05-10T10:51:18.618Z,100129.34
2023-05-10T10:53:45.835Z,100121.09
2023-05-10T10:56:16.163Z,100115.84
2023-05-10T10:58:52.154Z,100112.91
2023-05-10T11:01:20.688Z,100128.19
2023-05-10T11:04:00.203Z,100126.44
2023-05-10T11:06:35.336Z,100126.59
2023-05-10T11:09:10.292Z,100124.06
2023-05-10T11:11:49.119Z,100122.22
2023-05-10T11:14:22.299Z,100117.91
2023-05-10T11:16:49.448Z,100120.06
2023-05-10T11:19:17.493Z,100120.28
2023-05-10T11:21:47.415Z,100117.06
2023-05-10T11:24:16.271Z,100128.53
2023-05-10T11:26:43.190Z,100122.81
2023-05-10T11:29:09.985Z,100121.63
2023-05-10T11:31:43.450Z,100115.38
2023-05-10T11:34:10.245Z,100124.44
2023-05-10T11:36:37.457Z,100105.50
2023-05-10T11:39:04.917Z,100118.72
2023-05-10T11:41:32.168Z,100124.25
2023-05-10T11:43:59.504Z,100115.34
2023-05-10T11:46:28.275Z,100120.63
2023-05-10T11:49:04.951Z,100131.84
2023-05-10T11:51:40.384Z,100129.59
2023-05-10T11:54:11.850Z,100132.28
2023-05-10T11:56:42.596Z,100143.69
2023-05-10T11:59:10.146Z,100147.25
2023-05-10T12:01:37.215Z,100137.91
2023-05-10T12:04:04.178Z,100141.63
2023-05-10T12:06:33.496Z,100144.59
2023-05-10T12:09:00.603Z,100143.84
2023-05-10T12:11:29.354Z,100143.19
2023-05-10T12:13:59.489Z,100145.56
2023-05-10T12:16:29.548Z,100159.25
2023-05-10T12:19:01.212Z,100151.66
2023-05-10T12:21:32.467Z,100156.06
2023-05-10T12:24:04.715Z,100151.81
2023-05-10T12:26:31.681Z,100144.94
2023-05-10T12:29:18.725Z,100155.28
2023-05-10T12:31:53.797Z,100146.59
2023-05-10T12:34:35.291Z,100152.50
2023-05-10T12:37:03.308Z,100148.38
2023-05-10T12:39:45.041Z,100151.13
2023-05-10T12:42:11.881Z,100140.06
2023-05-10T12:44:38.802Z,100138.69
2023-05-10T12:47:05.448Z,100132.72
2023-05-10T12:49:32.341Z,100143.91
2023-05-10T12:51:58.998Z,100146.66
2023-05-10T12:54:26.766Z,100137.59
2023-05-10T12:56:53.363Z,100142.03
2023-05-10T12:59:19.959Z,100146.91
2023-05-10T13:01:46.675Z,100148.06
2023-05-10T13:04:13.397Z,100138.91
2023-05-10T13:06:41.162Z,100144.19
2023-05-10T13:09:08.004Z,100141.19
2023-05-10T13:11:34.888Z,100141.75
2023-05-10T13:14:01.617Z,100133.97
2023-05-10T13:16:28.485Z,100137.22
2023-05-10T13:18:55.160Z,100142.53
2023-05-10T13:21:21.861Z,100137.72
2023-05-10T13:23:48.620Z,100137.28
2023-05-10T13:26:15.485Z,100150.75
2023-05-10T13:28:42.123Z,100146.88
2023-05-10T13:31:09.107Z,100161.72
2023-05-10T13:33:35.831Z,100154.66
2023-05-10T13:36:02.581Z,100152.91
2023-05-10T13:38:31.502Z,100145.78
2023-05-10T13:40:59.134Z,100159.06
2023-05-10T13:43:25.912Z,100154.06
2023-05-10T13:45:53.170Z,100143.44
2023-05-10T13:48:19.780Z,100145.53
2023-05-10T13:50:47.160Z,100146.53
2023-05-10T13:53:15.646Z,100136.63
2023-05-10T13:55:42.817Z,100139.50
2023-05-10T13:58:09.610Z,100139.66
2023-05-10T14:00:36.423Z,100149.25
2023-05-10T14:03:03.352Z,100147.59
2023-05-10T14:05:30.327Z,100142.88
2023-05-10T14:07:57.989Z,100131.69
2023-05-10T14:10:24.742Z,100137.25
2023-05-10T14:12:51.532Z,100126.41
2023-05-10T14:15:18.307Z,100145.09
2023-05-10T14:17:45.132Z,100140.59
2023-05-10T14:20:12.440Z,100129.56
2023-05-10T14:22:39.024Z,100135.13
2023-05-10T14:25:05.784Z,100135.47
2023-05-10T14:27:33.316Z,100145.06
2023-05-10T14:29:59.849Z,100139.66
2023-05-10T14:32:28.189Z,100142.66
2023-05-10T14:34:57.639Z,100135.72
2023-05-10T14:37:24.322Z,100136.03
2023-05-10T14:39:50.910Z,100135.16
2023-05-10T14:42:17.722Z,100141.13
2023-05-10T14:44:44.279Z,100132.16
2023-05-10T14:47:12.124Z,100140.19
2023-05-10T14:49:39.121Z,100130.28
2023-05-10T14:52:05.845Z,100115.94
2023-05-10T14:54:34.724Z,100126.53
2023-05-10T14:57:01.652Z,100123.66
2023-05-10T14:59:30.727Z,100130.03
2023-05-10T15:01:57.843Z,100124.44
2023-05-10T15:04:26.015Z,100120.59
2023-05-10T15:07:00.042Z,100128.16
2023-05-10T15:09:28.609Z,100119.56
2023-05-10T15:11:56.136Z,100121.91
2023-05-10T15:14:23.881Z,100116.91
2023-05-10T15:16:51.928Z,100117.56
2023-05-10T15:19:18.745Z,100116.69
2023-05-10T15:21:46.169Z,100121.91
2023-05-10T15:24:13.011Z,100116.03
2023-05-10T15:26:39.807Z,100125.53
2023-05-10T15:29:06.395Z,100127.63
2023-05-10T15:31:36.283Z,100125.78
2023-05-10T15:34:02.997Z,100136.28
2023-05-10T15:36:30.116Z,100136.47
2023-05-10T15:38:56.855Z,100135.66
2023-05-10T15:41:23.774Z,100137.97
2023-05-10T15:43:50.355Z,100146.84
2023-05-10T15:46:17.021Z,100149.94
2023-05-10T15:48:44.027Z,100149.25
2023-05-10T15:51:10.532Z,100150.97
2023-05-10T15:53:37.268Z,100151.69
2023-05-10T15:56:04.182Z,100150.97
2023-05-10T15:58:30.848Z,100149.41
2023-05-10T16:00:57.814Z,100158.53
2023-05-10T16:03:24.866Z,100151.72
2023-05-10T16:05:51.443Z,100156.63
2023-05-10T16:08:18.038Z,100157.28
2023-05-10T16:10:44.697Z,100162.28
2023-05-10T16:13:11.557Z,100162.69
2023-05-10T16:15:38.122Z,100162.06
2023-05-10T16:18:05.099Z,100160.97
2023-05-10T16:20:32.722Z,100167.84
2023-05-10T16:23:04.309Z,100164.03
2023-05-10T16:25:33.959Z,100169.97
2023-05-10T16:28:03.135Z,100165.44
2023-05-10T16:30:30.843Z,100170.91
2023-05-10T16:32:59.008Z,100165.47
2023-05-10T16:35:26.550Z,100166.19
2023-05-10T16:37:53.430Z,100169.97
2023-05-10T16:40:20.065Z,100174.16
2023-05-10T16:42:46.909Z,100174.25
2023-05-10T16:45:13.750Z,100177.41
2023-05-10T16:47:40.815Z,100175.66
2023-05-10T16:50:08.063Z,100177.72
2023-05-10T16:52:36.982Z,100176.47
2023-05-10T16:55:06.618Z,100176.56
2023-05-10T16:57:33.205Z,100180.81
2023-05-10T17:00:00.147Z,100182.91
2023-05-10T17:02:27.264Z,100185.94
2023-05-10T17:04:56.332Z,100182.00
2023-05-10T17:07:25.419Z,100184.06
2023-05-10T17:09:53.016Z,100180.78
2023-05-10T17:12:19.583Z,100188.16
2023-05-10T17:14:46.314Z,100184.03
2023-05-10T17:17:13.308Z,100181.13
2023-05-10T17:19:39.931Z,100184.06
2023-05-10T17:22:06.583Z,100181.25
2023-05-10T17:24:33.308Z,100187.63
2023-05-10T17:27:01.835Z,100189.09
2023-05-10T17:29:29.142Z,100190.81
2023-05-10T17:31:55.865Z,100192.63
2023-05-10T17:34:22.703Z,100192.88
2023-05-10T17:36:49.422Z,100203.22
2023-05-10T17:39:16.239Z,100203.56
2023-05-10T17:41:42.801Z,100199.78
2023-05-10T17:44:09.440Z,100199.22
2023-05-10T17:46:39.060Z,100198.34
2023-05-10T17:49:05.739Z,100205.16
2023-05-10T17:51:32.897Z,100199.66
2023-05-10T17:54:00.839Z,100201.56
2023-05-10T17:56:27.862Z,100202.47
2023-05-10T17:58:54.790Z,100206.66
2023-05-10T18:01:21.503Z,100207.72
2023-05-10T18:03:49.719Z,100207.63
2023-05-10T18:06:16.659Z,100213.31
2023-05-10T18:08:43.189Z,100214.00
2023-05-10T18:11:10.243Z,100214.19
2023-05-10T18:13:38.234Z,100213.50
2023-05-10T18:16:06.131Z,100212.03
2023-05-10T18:18:32.786Z,100209.22
2023-05-10T18:20:59.626Z,100219.88
2023-05-10T18:23:27.954Z,100216.81
2023-05-10T18:25:54.506Z,100221.41
2023-05-10T18:28:21.020Z,100218.91
2023-05-10T18:30:47.739Z,100216.69
2023-05-10T18:33:15.891Z,100222.16
2023-05-10T18:35:42.725Z,100221.91
2023-05-10T18:38:13.504Z,100225.19
2023-05-10T18:40:40.893Z,100223.03
2023-05-10T18:43:09.314Z,100223.66
2023-05-10T18:45:36.025Z,100228.78
2023-05-10T18:48:03.014Z,100227.81
2023-05-10T18:50:29.833Z,100227.09
2023-05-10T18:52:56.635Z,100228.09
2023-05-10T18:55:28.313Z,100224.53
2023-05-10T18:57:54.903Z,100225.47
2023-05-10T19:00:21.844Z,100229.53
2023-05-10T19:02:48.894Z,100231.44
2023-05-10T19:05:16.293Z,100229.41
2023-05-10T19:07:43.977Z,100237.88
2023-05-10T19:10:12.747Z,100228.81
2023-05-10T19:12:41.497Z,100240.19
2023-05-10T19:15:09.259Z,100236.28
2023-05-10T19:17:36.754Z,100230.97
2023-05-10T19:20:09.143Z,100236.47
2023-05-10T19:22:54.311Z,100235.72
2023-05-10T19:25:29.021Z,100239.50
2023-05-10T19:28:02.097Z,100234.34
2023-05-10T19:30:30.515Z,100242.78
2023-05-10T19:32:57.354Z,100242.28
2023-05-10T19:35:24.054Z,100243.88
2023-05-10T19:37:52.498Z,100243.13
2023-05-10T19:40:20.065Z,100247.69
2023-05-10T19:42:46.720Z,100248.56
2023-05-10T19:45:16.414Z,100251.22
2023-05-10T19:47:44.084Z,100260.47
2023-05-10T19:50:12.306Z,100257.38
2023-05-10T19:52:39.264Z,100269.59
2023-05-10T19:55:07.802Z,100267.50
2023-05-10T19:57:34.548Z,100267.91
2023-05-10T20:00:01.092Z,100268.13
2023-05-10T20:02:27.884Z,100273.00
2023-05-10T20:04:55.167Z,100282.25
2023-05-10T20:07:21.965Z,100274.69
2023-05-10T20:09:48.686Z,100279.56
2023-05-10T20:12:16.433Z,100281.84
2023-05-10T20:14:43.095Z,100279.25
2023-05-10T20:17:10.841Z,100283.66
2023-05-10T20:19:37.698Z,100279.53
2023-05-10T20:22:05.416Z,100277.59
2023-05-10T20:24:32.334Z,100281.84
2023-05-10T20:26:59.169Z,100274.78
2023-05-10T20:29:26.383Z,100284.47
2023-05-10T20:31:52.876Z,100285.28
2023-05-10T20:34:20.019Z,100281.53
2023-05-10T20:36:46.673Z,100285.94
2023-05-10T20:39:14.178Z,100283.84
2023-05-10T20:41:40.829Z,100284.34
2023-05-10T20:44:07.760Z,100292.59
2023-05-10T20:46:36.029Z,100288.94
2023-05-10T20:49:02.961Z,100293.50
2023-05-10T20:51:30.420Z,100283.97
2023-05-10T20:53:58.619Z,100284.66
2023-05-10T20:56:27.074Z,100276.34
2023-05-10T20:58:53.762Z,100284.06
2023-05-10T21:01:20.430Z,100288.44
2023-05-10T21:03:47.334Z,100292.22
2023-05-10T21:06:14.041Z,100284.59
2023-05-10T21:08:40.907Z,100295.00
2023-05-10T21:11:07.530Z,100285.44
2023-05-10T21:13:35.450Z,100288.13
2023-05-10T21:16:02.022Z,100287.50
2023-05-10T21:18:29.210Z,100282.41
2023-05-10T21:20:55.877Z,100284.25
2023-05-10T21:23:22.647Z,100294.97
2023-05-10T21:25:49.205Z,100291.56
2023-05-10T21:28:16.336Z,100291.97
2023-05-10T21:30:43.021Z,100301.09
2023-05-10T21:33:09.576Z,100286.28
2023-05-10T21:35:39.256Z,100285.97
2023-05-10T21:38:05.969Z,100289.94
2023-05-10T21:40:32.552Z,100285.03
2023-05-10T21:42:59.147Z,100280.84
2023-05-10T21:45:25.783Z,100280.78
2023-05-10T21:47:52.631Z,100287.56
2023-05-10T21:50:19.734Z,100287.63
2023-05-10T21:52:46.496Z,100283.13
2023-05-10T21:55:13.095Z,100284.03
2023-05-10T21:57:39.916Z,100286.78
2023-05-10T22:00:07.308Z,100291.22
2023-05-10T22:02:35.611Z,100280.47
2023-05-10T22:05:03.781Z,100279.84
2023-05-10T22:07:31.331Z,100279.44
2023-05-10T22:09:58.556Z,100280.50
2023-05-10T22:12:26.106Z,100278.16
2023-05-10T22:15:02.867Z,100276.38
2023-05-10T22:17:37.366Z,100276.81
2023-05-10T22:20:04.955Z,100279.88
2023-05-10T22:22:34.745Z,100281.41
2023-05-10T22:25:01.356Z,100283.72
2023-05-10T22:27:27.917Z,100285.22
2023-05-10T22:29:55.060Z,100291.31
2023-05-10T22:32:21.889Z,100290.97
2023-05-10T22:34:52.510Z,100284.88
2023-05-10T22:37:19.114Z,100289.81
2023-05-10T22:39:46.552Z,100294.38
2023-05-10T22:42:16.194Z,100291.34
2023-05-10T22:44:43.628Z,100292.47
2023-05-10T22:47:12.352Z,100294.41
2023-05-10T22:49:38.995Z,100292.50
2023-05-10T22:52:05.740Z,100298.19
2023-05-10T22:54:33.717Z,100285.25
2023-05-10T22:57:02.212Z,100298.19
2023-05-10T22:59:30.282Z,100293.25
2023-05-10T23:01:57.022Z,100295.16
2023-05-10T23:04:23.962Z,100294.00
2023-05-10T23:06:50.817Z,100290.94
2023-05-10T23:09:17.733Z,100300.81
2023-05-10T23:11:44.630Z,100288.59
2023-05-10T23:14:11.224Z,100299.34
2023-05-10T23:16:37.808Z,100297.03
2023-05-10T23:19:04.604Z,100295.81
2023-05-10T23:21:32.209Z,100298.16
2023-05-10T23:24:00.052Z,100304.66
2023-05-10T23:26:27.942Z,100305.75
2023-05-10T23:28:54.584Z,100296.59
2023-05-10T23:31:21.524Z,100300.75
2023-05-10T23:33:48.390Z,100296.50
2023-05-10T23:36:14.861Z,100292.75
2023-05-10T23:38:41.654Z,100301.88
2023-05-10T23:41:08.236Z,100299.63
2023-05-10T23:43:34.810Z,100300.03
2023-05-10T23:46:01.667Z,100298.13
2023-05-10T23:48:28.611Z,100308.13
2023-05-10T23:50:55.244Z,100300.78
2023-05-10T23:53:22.006Z,100298.13
2023-05-10T23:55:51.324Z,100292.75
2023-05-10T23:58:17.861Z,100297.41
